createdAt,value
2022-08-05T00:25:02.797Z,26.1
2022-08-05T00:55:03.934Z,26.1
2022-08-05T01:25:03.684Z,26.1
2022-08-05T01:55:05.697Z,26
2022-08-05T02:10:04.451Z,26
2022-08-05T02:25:02.484Z,26
2022-08-05T02:40:05.672Z,26
2022-08-05T02:55:06.880Z,26
2022-08-05T03:10:06.669Z,26
2022-08-05T03:25:06.359Z,26
2022-08-05T03:40:05.004Z,26
2022-08-05T04:10:06.736Z,26
2022-08-05T04:25:05.517Z,26
2022-08-05T04:55:03.409Z,26
2022-08-05T05:25:04.398Z,26
2022-08-05T05:40:05.739Z,26.1
2022-08-05T05:55:05.418Z,26
2022-08-05T06:10:02.830Z,25.8
2022-08-05T06:25:05.802Z,25.7
2022-08-05T06:40:04.619Z,25.5
2022-08-05T06:55:04.366Z,25.3
2022-08-05T07:10:06.778Z,25.2
2022-08-05T07:25:06.786Z,25.1
2022-08-05T07:40:04.102Z,25
2022-08-05T07:55:05.337Z,24.9
2022-08-05T08:10:02.666Z,24.9
2022-08-05T08:25:04.448Z,24.8
2022-08-05T08:40:05.343Z,24.8
2022-08-05T08:55:06.627Z,24.8
2022-08-05T09:25:03.336Z,24.7
2022-08-05T09:40:06.394Z,24.7
2022-08-05T10:00:05.359Z,24.7
2022-08-05T10:15:04.630Z,24.7
2022-08-05T10:30:05.630Z,24.7
2022-08-05T10:45:02.501Z,24.6
2022-08-05T11:00:07.189Z,24.6
2022-08-05T11:15:03.882Z,24.6
2022-08-05T11:30:05.318Z,24.5
2022-08-05T11:45:05.653Z,24.5
2022-08-05T12:00:03.762Z,24.4
2022-08-05T12:15:04.876Z,24.4
2022-08-05T12:30:04.803Z,24.5
2022-08-05T12:45:03.433Z,24.5
2022-08-05T13:00:05.418Z,24.6
2022-08-05T13:15:06.865Z,24.7
2022-08-05T13:30:02.555Z,24.7
2022-08-05T13:45:05.671Z,24.8
2022-08-05T14:00:03.835Z,24.8
2022-08-05T14:15:03.837Z,24.8
2022-08-05T14:30:02.823Z,24.8
2022-08-05T14:45:04.359Z,24.9
2022-08-05T15:00:04.680Z,24.9
2022-08-05T15:15:04.648Z,25
2022-08-05T15:30:03.518Z,25
2022-08-05T15:45:06.338Z,25
2022-08-05T16:00:02.894Z,25
2022-08-05T16:15:05.623Z,24.9
2022-08-05T16:30:02.397Z,24.9
2022-08-05T16:45:06.371Z,24.9
2022-08-05T17:00:02.534Z,24.9
2022-08-05T17:15:02.555Z,24.9
2022-08-05T17:30:03.683Z,25
2022-08-05T18:00:06.849Z,25.1
2022-08-05T18:15:03.543Z,25.2
2022-08-05T18:30:06.558Z,25.3
2022-08-05T19:00:05.586Z,25.2
2022-08-05T19:15:02.337Z,25.1
2022-08-05T19:30:05.463Z,25.1
2022-08-05T19:45:05.359Z,25
2022-08-05T20:00:05.677Z,24.9
2022-08-05T20:15:05.422Z,24.8
2022-08-05T20:30:05.570Z,24.8
2022-08-05T20:45:04.852Z,24.7
2022-08-05T21:00:04.528Z,24.7
2022-08-05T21:30:06.462Z,24.7
2022-08-05T22:00:03.751Z,24.7
2022-08-05T22:30:02.554Z,24.6
2022-08-05T22:45:05.566Z,24.6
2022-08-05T23:00:03.460Z,24.6
2022-08-05T23:15:05.561Z,24.5
2022-08-05T23:30:06.462Z,24.5
2022-08-05T23:45:02.829Z,24.5
